Terminal Aerodrome Forecast
Issued by NWS Sterling, VA

Current Version | Previous Version | Graphics & Text | Print | Product List | Glossary On
Versions: 1 2 3 4 5 6 7 8 9 10 11 12 13 14 15 16 17 18 19 20 21
831
FTUS41 KLWX 142334
TAFDCA
TAF
KDCA 142334Z 1500/1524 00000KT 3SM -RA OVC008
     FM150300 00000KT 2SM BR OVC008
     FM150600 VRB03KT 3SM BR OVC008
     FM151000 34004KT P6SM OVC200
     FM151300 35008KT P6SM SCT200=

USA.gov is the U.S. government's official web portal to all federal, state and local government web resources and services.